sensor_id;sensor_type;location;lat;lon;timestamp;pressure;altitude;pressure_sealevel;temperature;humidity
47983;BME280;33751;50.816;-1.214;2022-11-02T00:00:56;101311.41;;;10.20;100.00
47983;BME280;33751;50.816;-1.214;2022-11-02T00:03:23;101308.16;;;10.17;100.00
47983;BME280;33751;50.816;-1.214;2022-11-02T00:05:50;101323.95;;;10.21;100.00
47983;BME280;33751;50.816;-1.214;2022-11-02T00:08:16;101326.74;;;10.16;100.00
47983;BME280;33751;50.816;-1.214;2022-11-02T00:10:43;101332.17;;;10.17;100.00
47983;BME280;33751;50.816;-1.214;2022-11-02T00:13:10;101341.05;;;10.35;100.00
47983;BME280;33751;50.816;-1.214;2022-11-02T00:15:36;101342.03;;;10.16;100.00
47983;BME280;33751;50.816;-1.214;2022-11-02T00:18:06;101339.01;;;10.18;100.00
47983;BME280;33751;50.816;-1.214;2022-11-02T00:20:36;101348.93;;;9.88;100.00
47983;BME280;33751;50.816;-1.214;2022-11-02T00:23:05;101356.01;;;9.83;100.00
47983;BME280;33751;50.816;-1.214;2022-11-02T00:25:33;101357.15;;;10.21;100.00
47983;BME280;33751;50.816;-1.214;2022-11-02T00:28:00;101364.45;;;9.72;100.00
47983;BME280;33751;50.816;-1.214;2022-11-02T00:30:26;101373.28;;;9.93;100.00
47983;BME280;33751;50.816;-1.214;2022-11-02T00:32:54;101376.33;;;9.95;100.00
47983;BME280;33751;50.816;-1.214;2022-11-02T00:35:21;101384.62;;;10.21;100.00
47983;BME280;33751;50.816;-1.214;2022-11-02T00:37:48;101390.31;;;10.05;100.00
47983;BME280;33751;50.816;-1.214;2022-11-02T00:40:15;101387.49;;;9.99;100.00
47983;BME280;33751;50.816;-1.214;2022-11-02T00:42:42;101392.83;;;10.04;100.00
47983;BME280;33751;50.816;-1.214;2022-11-02T00:45:09;101392.53;;;9.82;100.00
47983;BME280;33751;50.816;-1.214;2022-11-02T00:47:36;101398.91;;;9.96;100.00
47983;BME280;33751;50.816;-1.214;2022-11-02T00:50:04;101403.88;;;9.81;100.00
47983;BME280;33751;50.816;-1.214;2022-11-02T00:52:31;101408.16;;;9.98;100.00
47983;BME280;33751;50.816;-1.214;2022-11-02T00:54:59;101413.52;;;10.05;100.00
47983;BME280;33751;50.816;-1.214;2022-11-02T00:57:25;101416.88;;;10.02;100.00
47983;BME280;33751;50.816;-1.214;2022-11-02T00:59:52;101417.67;;;10.06;100.00
47983;BME280;33751;50.816;-1.214;2022-11-02T01:02:19;101423.66;;;10.13;100.00
47983;BME280;33751;50.816;-1.214;2022-11-02T01:04:45;101422.73;;;10.02;100.00
47983;BME280;33751;50.816;-1.214;2022-11-02T01:07:12;101428.67;;;9.92;100.00
47983;BME280;33751;50.816;-1.214;2022-11-02T01:09:39;101430.82;;;9.93;100.00
47983;BME280;33751;50.816;-1.214;2022-11-02T01:12:06;101435.79;;;10.12;100.00
47983;BME280;33751;50.816;-1.214;2022-11-02T01:14:33;101437.02;;;10.04;100.00
47983;BME280;33751;50.816;-1.214;2022-11-02T01:17:00;101436.15;;;9.87;100.00
47983;BME280;33751;50.816;-1.214;2022-11-02T01:19:26;101437.40;;;10.04;100.00
47983;BME280;33751;50.816;-1.214;2022-11-02T01:21:53;101443.88;;;9.90;100.00
47983;BME280;33751;50.816;-1.214;2022-11-02T01:24:19;101442.82;;;10.02;100.00
47983;BME280;33751;50.816;-1.214;2022-11-02T01:26:49;101442.44;;;10.02;100.00
47983;BME280;33751;50.816;-1.214;2022-11-02T01:29:16;101446.19;;;10.11;100.00
47983;BME280;33751;50.816;-1.214;2022-11-02T01:31:43;101442.95;;;10.00;100.00
47983;BME280;33751;50.816;-1.214;2022-11-02T01:34:11;101456.23;;;9.99;100.00
47983;BME280;33751;50.816;-1.214;2022-11-02T01:36:37;101464.58;;;10.01;100.00
47983;BME280;33751;50.816;-1.214;2022-11-02T01:39:04;101460.45;;;10.30;100.00
47983;BME280;33751;50.816;-1.214;2022-11-02T01:41:30;101456.37;;;10.03;100.00
47983;BME280;33751;50.816;-1.214;2022-11-02T01:43:57;101470.29;;;10.25;100.00
47983;BME280;33751;50.816;-1.214;2022-11-02T01:46:35;101469.30;;;10.10;100.00
47983;BME280;33751;50.816;-1.214;2022-11-02T01:49:06;101472.74;;;10.20;100.00
47983;BME280;33751;50.816;-1.214;2022-11-02T01:51:38;101477.25;;;9.98;100.00
47983;BME280;33751;50.816;-1.214;2022-11-02T01:54:08;101485.40;;;10.28;100.00
47983;BME280;33751;50.816;-1.214;2022-11-02T01:56:38;101479.58;;;9.97;100.00
47983;BME280;33751;50.816;-1.214;2022-11-02T01:59:11;101486.03;;;10.16;100.00
47983;BME280;33751;50.816;-1.214;2022-11-02T02:01:40;101492.16;;;10.21;100.00
47983;BME280;33751;50.816;-1.214;2022-11-02T02:04:08;101492.29;;;10.21;100.00
47983;BME280;33751;50.816;-1.214;2022-11-02T02:06:38;101492.99;;;9.92;100.00
47983;BME280;33751;50.816;-1.214;2022-11-02T02:09:05;101492.15;;;9.90;100.00
47983;BME280;33751;50.816;-1.214;2022-11-02T02:11:34;101497.53;;;9.93;100.00
47983;BME280;33751;50.816;-1.214;2022-11-02T02:14:03;101506.33;;;10.21;100.00
47983;BME280;33751;50.816;-1.214;2022-11-02T02:16:45;101508.88;;;10.08;100.00
47983;BME280;33751;50.816;-1.214;2022-11-02T02:19:26;101517.84;;;10.39;100.00
47983;BME280;33751;50.816;-1.214;2022-11-02T02:22:06;101522.41;;;9.99;100.00
47983;BME280;33751;50.816;-1.214;2022-11-02T02:24:47;101528.00;;;9.82;100.00
47983;BME280;33751;50.816;-1.214;2022-11-02T02:27:18;101526.20;;;9.71;100.00
47983;BME280;33751;50.816;-1.214;2022-11-02T02:29:51;101521.35;;;10.34;100.00
47983;BME280;33751;50.816;-1.214;2022-11-02T02:32:24;101525.92;;;10.06;100.00
47983;BME280;33751;50.816;-1.214;2022-11-02T02:34:55;101525.82;;;10.43;100.00
47983;BME280;33751;50.816;-1.214;2022-11-02T02:37:27;101531.03;;;10.08;100.00
47983;BME280;33751;50.816;-1.214;2022-11-02T02:40:02;101529.94;;;10.19;100.00
47983;BME280;33751;50.816;-1.214;2022-11-02T02:42:33;101532.97;;;9.93;100.00
47983;BME280;33751;50.816;-1.214;2022-11-02T02:45:07;101534.34;;;10.11;100.00
47983;BME280;33751;50.816;-1.214;2022-11-02T02:47:43;101543.44;;;10.09;100.00
47983;BME280;33751;50.816;-1.214;2022-11-02T02:50:15;101546.29;;;9.84;100.00
47983;BME280;33751;50.816;-1.214;2022-11-02T02:52:46;101544.33;;;9.95;100.00
47983;BME280;33751;50.816;-1.214;2022-11-02T02:55:17;101550.15;;;9.90;100.00
47983;BME280;33751;50.816;-1.214;2022-11-02T02:57:46;101548.51;;;10.12;100.00
47983;BME280;33751;50.816;-1.214;2022-11-02T03:00:16;101549.42;;;9.97;100.00
47983;BME280;33751;50.816;-1.214;2022-11-02T03:02:45;101543.73;;;9.95;100.00
47983;BME280;33751;50.816;-1.214;2022-11-02T03:05:22;101543.91;;;9.92;100.00
47983;BME280;33751;50.816;-1.214;2022-11-02T03:07:50;101556.20;;;9.75;100.00
47983;BME280;33751;50.816;-1.214;2022-11-02T03:10:21;101559.74;;;10.26;100.00
47983;BME280;33751;50.816;-1.214;2022-11-02T03:12:59;101566.84;;;9.93;100.00
47983;BME280;33751;50.816;-1.214;2022-11-02T03:15:34;101574.89;;;9.86;100.00
47983;BME280;33751;50.816;-1.214;2022-11-02T03:18:13;101578.66;;;9.66;100.00
47983;BME280;33751;50.816;-1.214;2022-11-02T03:20:51;101576.55;;;9.99;100.00
47983;BME280;33751;50.816;-1.214;2022-11-02T03:23:23;101573.20;;;9.90;100.00
47983;BME280;33751;50.816;-1.214;2022-11-02T03:25:58;101569.09;;;9.77;100.00
47983;BME280;33751;50.816;-1.214;2022-11-02T03:28:36;101572.74;;;10.01;100.00
47983;BME280;33751;50.816;-1.214;2022-11-02T03:31:12;101577.51;;;9.98;100.00
47983;BME280;33751;50.816;-1.214;2022-11-02T03:33:44;101578.37;;;9.94;100.00
47983;BME280;33751;50.816;-1.214;2022-11-02T03:36:17;101578.68;;;10.13;100.00
47983;BME280;33751;50.816;-1.214;2022-11-02T03:38:48;101583.17;;;9.71;100.00
47983;BME280;33751;50.816;-1.214;2022-11-02T03:41:17;101580.25;;;10.02;100.00
47983;BME280;33751;50.816;-1.214;2022-11-02T03:43:47;101577.98;;;9.70;100.00
47983;BME280;33751;50.816;-1.214;2022-11-02T03:46:15;101589.92;;;9.64;100.00
47983;BME280;33751;50.816;-1.214;2022-11-02T03:48:45;101592.82;;;10.07;100.00
47983;BME280;33751;50.816;-1.214;2022-11-02T03:51:17;101591.93;;;10.08;100.00
47983;BME280;33751;50.816;-1.214;2022-11-02T03:53:48;101590.07;;;9.90;100.00
47983;BME280;33751;50.816;-1.214;2022-11-02T03:56:21;101591.62;;;9.71;100.00
47983;BME280;33751;50.816;-1.214;2022-11-02T03:58:50;101593.63;;;10.08;100.00
47983;BME280;33751;50.816;-1.214;2022-11-02T04:01:19;101592.69;;;9.86;100.00
47983;BME280;33751;50.816;-1.214;2022-11-02T04:03:46;101594.73;;;10.17;100.00
47983;BME280;33751;50.816;-1.214;2022-11-02T04:06:14;101593.09;;;9.97;100.00
47983;BME280;33751;50.816;-1.214;2022-11-02T04:08:42;101600.56;;;9.87;100.00
47983;BME280;33751;50.816;-1.214;2022-11-02T04:11:10;101598.36;;;9.84;100.00
47983;BME280;33751;50.816;-1.214;2022-11-02T04:13:38;101597.32;;;9.71;100.00
47983;BME280;33751;50.816;-1.214;2022-11-02T04:16:06;101602.24;;;9.55;100.00
47983;BME280;33751;50.816;-1.214;2022-11-02T04:18:32;101609.17;;;9.65;100.00
47983;BME280;33751;50.816;-1.214;2022-11-02T04:20:59;101606.56;;;9.68;100.00
47983;BME280;33751;50.816;-1.214;2022-11-02T04:23:26;101611.95;;;9.99;100.00
47983;BME280;33751;50.816;-1.214;2022-11-02T04:25:53;101614.38;;;9.95;100.00
47983;BME280;33751;50.816;-1.214;2022-11-02T04:28:20;101620.38;;;9.90;100.00
47983;BME280;33751;50.816;-1.214;2022-11-02T04:30:47;101618.72;;;9.92;100.00
47983;BME280;33751;50.816;-1.214;2022-11-02T04:33:14;101622.77;;;9.65;100.00
47983;BME280;33751;50.816;-1.214;2022-11-02T04:35:42;101627.05;;;10.00;100.00
47983;BME280;33751;50.816;-1.214;2022-11-02T04:38:08;101629.28;;;10.04;100.00
47983;BME280;33751;50.816;-1.214;2022-11-02T04:40:35;101631.34;;;9.78;100.00
47983;BME280;33751;50.816;-1.214;2022-11-02T04:43:02;101635.16;;;10.20;100.00
47983;BME280;33751;50.816;-1.214;2022-11-02T04:45:30;101640.47;;;9.87;100.00
47983;BME280;33751;50.816;-1.214;2022-11-02T04:47:58;101640.61;;;10.06;100.00
47983;BME280;33751;50.816;-1.214;2022-11-02T04:50:25;101639.74;;;9.89;100.00
47983;BME280;33751;50.816;-1.214;2022-11-02T04:52:55;101644.29;;;10.05;100.00
47983;BME280;33751;50.816;-1.214;2022-11-02T04:55:22;101644.40;;;10.06;100.00
47983;BME280;33751;50.816;-1.214;2022-11-02T04:57:48;101650.25;;;10.06;100.00
47983;BME280;33751;50.816;-1.214;2022-11-02T05:00:15;101653.63;;;9.81;100.00
47983;BME280;33751;50.816;-1.214;2022-11-02T05:02:45;101654.26;;;9.74;100.00
47983;BME280;33751;50.816;-1.214;2022-11-02T05:05:12;101653.54;;;9.75;100.00
47983;BME280;33751;50.816;-1.214;2022-11-02T05:07:39;101651.03;;;9.76;100.00
47983;BME280;33751;50.816;-1.214;2022-11-02T05:10:06;101648.76;;;9.74;100.00
47983;BME280;33751;50.816;-1.214;2022-11-02T05:12:33;101656.15;;;9.63;100.00
47983;BME280;33751;50.816;-1.214;2022-11-02T05:15:00;101663.26;;;9.69;100.00
47983;BME280;33751;50.816;-1.214;2022-11-02T05:17:27;101671.00;;;9.81;100.00
47983;BME280;33751;50.816;-1.214;2022-11-02T05:19:54;101675.63;;;10.12;100.00
47983;BME280;33751;50.816;-1.214;2022-11-02T05:22:20;101681.87;;;9.86;100.00
47983;BME280;33751;50.816;-1.214;2022-11-02T05:24:47;101679.55;;;10.27;100.00
47983;BME280;33751;50.816;-1.214;2022-11-02T05:27:14;101677.94;;;9.70;100.00
47983;BME280;33751;50.816;-1.214;2022-11-02T05:29:41;101675.84;;;10.07;100.00
47983;BME280;33751;50.816;-1.214;2022-11-02T05:32:07;101667.26;;;9.61;100.00
47983;BME280;33751;50.816;-1.214;2022-11-02T05:34:34;101666.09;;;9.91;100.00
47983;BME280;33751;50.816;-1.214;2022-11-02T05:37:01;101672.69;;;9.54;100.00
47983;BME280;33751;50.816;-1.214;2022-11-02T05:39:27;101670.78;;;9.43;100.00
47983;BME280;33751;50.816;-1.214;2022-11-02T05:41:54;101669.32;;;9.22;100.00
47983;BME280;33751;50.816;-1.214;2022-11-02T05:44:21;101672.54;;;9.78;100.00
47983;BME280;33751;50.816;-1.214;2022-11-02T05:46:48;101670.46;;;9.69;100.00
47983;BME280;33751;50.816;-1.214;2022-11-02T05:49:15;101668.29;;;9.48;100.00
47983;BME280;33751;50.816;-1.214;2022-11-02T05:51:42;101668.60;;;9.89;100.00
47983;BME280;33751;50.816;-1.214;2022-11-02T05:54:09;101662.05;;;9.75;100.00
47983;BME280;33751;50.816;-1.214;2022-11-02T05:56:36;101656.86;;;9.53;100.00
47983;BME280;33751;50.816;-1.214;2022-11-02T05:59:02;101655.15;;;10.40;100.00
47983;BME280;33751;50.816;-1.214;2022-11-02T06:01:29;101653.91;;;10.44;100.00
47983;BME280;33751;50.816;-1.214;2022-11-02T06:03:56;101654.38;;;10.14;100.00
47983;BME280;33751;50.816;-1.214;2022-11-02T06:06:22;101656.09;;;10.67;100.00
47983;BME280;33751;50.816;-1.214;2022-11-02T06:08:49;101651.25;;;10.28;100.00
47983;BME280;33751;50.816;-1.214;2022-11-02T06:11:15;101658.10;;;9.99;100.00
47983;BME280;33751;50.816;-1.214;2022-11-02T06:13:42;101659.64;;;9.83;100.00
47983;BME280;33751;50.816;-1.214;2022-11-02T06:16:11;101656.43;;;10.01;100.00
47983;BME280;33751;50.816;-1.214;2022-11-02T06:18:37;101653.72;;;10.14;100.00
47983;BME280;33751;50.816;-1.214;2022-11-02T06:21:05;101655.02;;;10.18;100.00
47983;BME280;33751;50.816;-1.214;2022-11-02T06:23:32;101657.36;;;10.18;100.00
47983;BME280;33751;50.816;-1.214;2022-11-02T06:26:00;101651.99;;;10.46;100.00
47983;BME280;33751;50.816;-1.214;2022-11-02T06:28:28;101651.65;;;10.68;100.00
47983;BME280;33751;50.816;-1.214;2022-11-02T06:30:55;101649.81;;;10.41;100.00
47983;BME280;33751;50.816;-1.214;2022-11-02T06:33:22;101654.14;;;10.62;100.00
47983;BME280;33751;50.816;-1.214;2022-11-02T06:35:51;101652.97;;;10.72;100.00
47983;BME280;33751;50.816;-1.214;2022-11-02T06:38:19;101655.71;;;10.68;100.00
47983;BME280;33751;50.816;-1.214;2022-11-02T06:40:53;101653.30;;;10.77;100.00
47983;BME280;33751;50.816;-1.214;2022-11-02T06:43:19;101653.82;;;10.77;100.00
47983;BME280;33751;50.816;-1.214;2022-11-02T06:45:46;101648.93;;;10.80;100.00
47983;BME280;33751;50.816;-1.214;2022-11-02T06:48:14;101646.96;;;10.68;100.00
47983;BME280;33751;50.816;-1.214;2022-11-02T06:50:41;101643.83;;;10.52;100.00
47983;BME280;33751;50.816;-1.214;2022-11-02T06:53:07;101644.01;;;10.78;100.00
47983;BME280;33751;50.816;-1.214;2022-11-02T06:55:34;101650.27;;;10.59;100.00
47983;BME280;33751;50.816;-1.214;2022-11-02T06:58:01;101652.03;;;10.65;100.00
47983;BME280;33751;50.816;-1.214;2022-11-02T07:00:28;101656.95;;;10.90;100.00
47983;BME280;33751;50.816;-1.214;2022-11-02T07:02:59;101651.95;;;10.83;100.00
47983;BME280;33751;50.816;-1.214;2022-11-02T07:05:26;101653.22;;;10.65;100.00
47983;BME280;33751;50.816;-1.214;2022-11-02T07:07:52;101653.71;;;10.82;100.00
47983;BME280;33751;50.816;-1.214;2022-11-02T07:10:19;101655.80;;;10.79;100.00
47983;BME280;33751;50.816;-1.214;2022-11-02T07:12:47;101659.13;;;10.80;100.00
47983;BME280;33751;50.816;-1.214;2022-11-02T07:15:17;101655.01;;;11.06;100.00
47983;BME280;33751;50.816;-1.214;2022-11-02T07:17:44;101655.47;;;11.00;100.00
47983;BME280;33751;50.816;-1.214;2022-11-02T07:20:11;101658.86;;;10.95;100.00
47983;BME280;33751;50.816;-1.214;2022-11-02T07:22:38;101658.93;;;10.90;100.00
47983;BME280;33751;50.816;-1.214;2022-11-02T07:25:06;101662.12;;;11.11;100.00
47983;BME280;33751;50.816;-1.214;2022-11-02T07:27:37;101661.68;;;11.44;100.00
47983;BME280;33751;50.816;-1.214;2022-11-02T07:30:05;101659.78;;;10.83;100.00
47983;BME280;33751;50.816;-1.214;2022-11-02T07:32:38;101664.20;;;11.37;100.00
47983;BME280;33751;50.816;-1.214;2022-11-02T07:35:06;101662.03;;;10.94;100.00
47983;BME280;33751;50.816;-1.214;2022-11-02T07:37:33;101670.17;;;11.25;100.00
47983;BME280;33751;50.816;-1.214;2022-11-02T07:40:00;101674.26;;;11.60;100.00
47983;BME280;33751;50.816;-1.214;2022-11-02T07:42:26;101671.22;;;11.12;100.00
47983;BME280;33751;50.816;-1.214;2022-11-02T07:44:53;101675.09;;;11.73;100.00
47983;BME280;33751;50.816;-1.214;2022-11-02T07:47:20;101679.02;;;11.22;100.00
47983;BME280;33751;50.816;-1.214;2022-11-02T07:49:46;101676.93;;;11.25;100.00
47983;BME280;33751;50.816;-1.214;2022-11-02T07:52:14;101680.00;;;11.39;100.00
47983;BME280;33751;50.816;-1.214;2022-11-02T07:54:40;101679.80;;;11.60;100.00
47983;BME280;33751;50.816;-1.214;2022-11-02T07:57:07;101682.23;;;11.64;100.00
47983;BME280;33751;50.816;-1.214;2022-11-02T07:59:33;101678.79;;;11.39;100.00
47983;BME280;33751;50.816;-1.214;2022-11-02T08:02:00;101678.34;;;11.54;100.00
47983;BME280;33751;50.816;-1.214;2022-11-02T08:04:26;101677.87;;;11.68;100.00
47983;BME280;33751;50.816;-1.214;2022-11-02T08:06:53;101678.27;;;11.65;100.00
47983;BME280;33751;50.816;-1.214;2022-11-02T08:09:20;101674.97;;;11.77;100.00
47983;BME280;33751;50.816;-1.214;2022-11-02T08:11:47;101675.90;;;11.88;100.00
47983;BME280;33751;50.816;-1.214;2022-11-02T08:14:14;101677.25;;;11.69;100.00
47983;BME280;33751;50.816;-1.214;2022-11-02T08:16:41;101669.76;;;11.78;100.00
47983;BME280;33751;50.816;-1.214;2022-11-02T08:19:07;101662.02;;;11.71;100.00
47983;BME280;33751;50.816;-1.214;2022-11-02T08:21:34;101660.92;;;11.75;100.00
47983;BME280;33751;50.816;-1.214;2022-11-02T08:24:01;101665.05;;;11.79;100.00
47983;BME280;33751;50.816;-1.214;2022-11-02T08:26:27;101669.96;;;11.72;100.00
47983;BME280;33751;50.816;-1.214;2022-11-02T08:28:54;101675.56;;;11.75;100.00
47983;BME280;33751;50.816;-1.214;2022-11-02T08:31:20;101679.18;;;11.78;100.00
47983;BME280;33751;50.816;-1.214;2022-11-02T08:33:47;101679.65;;;11.75;100.00
47983;BME280;33751;50.816;-1.214;2022-11-02T08:36:14;101676.97;;;11.70;100.00
47983;BME280;33751;50.816;-1.214;2022-11-02T08:38:40;101675.85;;;12.00;100.00
47983;BME280;33751;50.816;-1.214;2022-11-02T08:41:07;101661.78;;;12.02;100.00
47983;BME280;33751;50.816;-1.214;2022-11-02T08:43:34;101665.03;;;12.16;100.00
47983;BME280;33751;50.816;-1.214;2022-11-02T08:46:00;101657.67;;;12.17;100.00
47983;BME280;33751;50.816;-1.214;2022-11-02T08:48:27;101658.66;;;11.91;100.00
47983;BME280;33751;50.816;-1.214;2022-11-02T08:50:54;101655.96;;;11.97;100.00
47983;BME280;33751;50.816;-1.214;2022-11-02T08:53:21;101655.87;;;12.54;100.00
47983;BME280;33751;50.816;-1.214;2022-11-02T08:55:48;101658.79;;;12.55;100.00
47983;BME280;33751;50.816;-1.214;2022-11-02T08:58:15;101656.12;;;12.15;100.00
47983;BME280;33751;50.816;-1.214;2022-11-02T09:00:43;101650.25;;;12.18;100.00
47983;BME280;33751;50.816;-1.214;2022-11-02T09:03:11;101649.57;;;12.68;100.00
47983;BME280;33751;50.816;-1.214;2022-11-02T09:05:40;101648.48;;;12.49;100.00
47983;BME280;33751;50.816;-1.214;2022-11-02T09:08:09;101646.60;;;12.76;100.00
47983;BME280;33751;50.816;-1.214;2022-11-02T09:10:37;101640.16;;;12.60;100.00
47983;BME280;33751;50.816;-1.214;2022-11-02T09:13:05;101649.95;;;12.57;100.00
47983;BME280;33751;50.816;-1.214;2022-11-02T09:15:34;101653.40;;;12.60;100.00
47983;BME280;33751;50.816;-1.214;2022-11-02T09:18:01;101654.65;;;12.92;100.00
47983;BME280;33751;50.816;-1.214;2022-11-02T09:20:27;101656.96;;;12.94;100.00
47983;BME280;33751;50.816;-1.214;2022-11-02T09:22:54;101653.32;;;12.62;100.00
47983;BME280;33751;50.816;-1.214;2022-11-02T09:25:20;101656.77;;;12.36;100.00
47983;BME280;33751;50.816;-1.214;2022-11-02T09:27:51;101658.97;;;12.37;100.00
47983;BME280;33751;50.816;-1.214;2022-11-02T09:30:19;101662.28;;;12.46;100.00
47983;BME280;33751;50.816;-1.214;2022-11-02T09:32:53;101654.93;;;12.87;100.00
47983;BME280;33751;50.816;-1.214;2022-11-02T09:35:20;101652.86;;;12.60;100.00
47983;BME280;33751;50.816;-1.214;2022-11-02T09:37:47;101650.40;;;12.84;100.00
47983;BME280;33751;50.816;-1.214;2022-11-02T09:40:17;101654.02;;;13.18;100.00
47983;BME280;33751;50.816;-1.214;2022-11-02T09:42:54;101654.04;;;13.41;100.00
47983;BME280;33751;50.816;-1.214;2022-11-02T09:45:22;101648.33;;;13.28;100.00
47983;BME280;33751;50.816;-1.214;2022-11-02T09:47:54;101651.65;;;12.85;100.00
47983;BME280;33751;50.816;-1.214;2022-11-02T09:50:26;101654.22;;;12.86;100.00
47983;BME280;33751;50.816;-1.214;2022-11-02T09:52:58;101648.93;;;13.08;100.00
47983;BME280;33751;50.816;-1.214;2022-11-02T09:55:32;101646.17;;;13.15;100.00
47983;BME280;33751;50.816;-1.214;2022-11-02T09:58:04;101646.31;;;13.38;100.00
47983;BME280;33751;50.816;-1.214;2022-11-02T10:00:37;101647.39;;;13.05;100.00
47983;BME280;33751;50.816;-1.214;2022-11-02T10:03:10;101645.80;;;13.29;100.00
47983;BME280;33751;50.816;-1.214;2022-11-02T10:05:49;101636.06;;;13.05;100.00
47983;BME280;33751;50.816;-1.214;2022-11-02T10:08:26;101634.97;;;12.99;100.00
47983;BME280;33751;50.816;-1.214;2022-11-02T10:11:06;101637.42;;;13.44;100.00
47983;BME280;33751;50.816;-1.214;2022-11-02T10:13:41;101630.60;;;13.54;100.00
47983;BME280;33751;50.816;-1.214;2022-11-02T10:16:13;101627.17;;;13.33;100.00
47983;BME280;33751;50.816;-1.214;2022-11-02T10:18:42;101624.93;;;13.66;100.00
47983;BME280;33751;50.816;-1.214;2022-11-02T10:21:13;101623.13;;;13.44;100.00
47983;BME280;33751;50.816;-1.214;2022-11-02T10:23:48;101615.97;;;13.64;100.00
47983;BME280;33751;50.816;-1.214;2022-11-02T10:26:21;101613.12;;;13.73;100.00
47983;BME280;33751;50.816;-1.214;2022-11-02T10:28:55;101618.22;;;13.15;100.00
47983;BME280;33751;50.816;-1.214;2022-11-02T10:31:26;101612.05;;;13.40;100.00
47983;BME280;33751;50.816;-1.214;2022-11-02T10:33:56;101611.18;;;13.34;100.00
47983;BME280;33751;50.816;-1.214;2022-11-02T10:36:36;101613.04;;;13.33;100.00
47983;BME280;33751;50.816;-1.214;2022-11-02T10:39:15;101608.93;;;13.28;100.00
47983;BME280;33751;50.816;-1.214;2022-11-02T10:41:58;101604.96;;;13.75;100.00
47983;BME280;33751;50.816;-1.214;2022-11-02T10:44:49;101601.51;;;13.58;100.00
47983;BME280;33751;50.816;-1.214;2022-11-02T10:47:21;101593.62;;;13.06;100.00
47983;BME280;33751;50.816;-1.214;2022-11-02T10:50:02;101592.34;;;13.14;100.00
47983;BME280;33751;50.816;-1.214;2022-11-02T10:52:34;101590.73;;;13.29;100.00
47983;BME280;33751;50.816;-1.214;2022-11-02T10:55:02;101586.55;;;13.22;100.00
47983;BME280;33751;50.816;-1.214;2022-11-02T10:57:30;101579.90;;;13.01;100.00
47983;BME280;33751;50.816;-1.214;2022-11-02T11:00:32;101577.90;;;13.39;100.00
47983;BME280;33751;50.816;-1.214;2022-11-02T11:03:05;101580.84;;;13.59;100.00
47983;BME280;33751;50.816;-1.214;2022-11-02T11:05:34;101569.47;;;13.23;100.00
47983;BME280;33751;50.816;-1.214;2022-11-02T11:08:02;101565.50;;;13.33;100.00
47983;BME280;33751;50.816;-1.214;2022-11-02T11:10:36;101567.14;;;13.34;100.00
47983;BME280;33751;50.816;-1.214;2022-11-02T11:13:04;101563.58;;;13.56;100.00
47983;BME280;33751;50.816;-1.214;2022-11-02T11:15:32;101555.88;;;13.63;100.00
47983;BME280;33751;50.816;-1.214;2022-11-02T11:18:09;101551.96;;;13.95;100.00
47983;BME280;33751;50.816;-1.214;2022-11-02T11:20:39;101556.55;;;13.57;100.00
47983;BME280;33751;50.816;-1.214;2022-11-02T11:23:15;101545.88;;;13.85;100.00
47983;BME280;33751;50.816;-1.214;2022-11-02T11:25:53;101537.76;;;13.59;100.00
47983;BME280;33751;50.816;-1.214;2022-11-02T11:28:23;101544.11;;;13.19;100.00
47983;BME280;33751;50.816;-1.214;2022-11-02T11:31:01;101536.56;;;13.16;100.00
47983;BME280;33751;50.816;-1.214;2022-11-02T11:33:30;101531.63;;;13.32;100.00
47983;BME280;33751;50.816;-1.214;2022-11-02T11:35:58;101528.81;;;13.23;100.00
47983;BME280;33751;50.816;-1.214;2022-11-02T11:38:25;101518.91;;;13.49;100.00
47983;BME280;33751;50.816;-1.214;2022-11-02T11:40:54;101504.68;;;13.58;100.00
47983;BME280;33751;50.816;-1.214;2022-11-02T11:43:24;101503.73;;;13.69;100.00
47983;BME280;33751;50.816;-1.214;2022-11-02T11:45:54;101506.79;;;13.88;100.00
47983;BME280;33751;50.816;-1.214;2022-11-02T11:48:28;101498.73;;;13.65;100.00
47983;BME280;33751;50.816;-1.214;2022-11-02T11:50:59;101497.93;;;13.69;100.00
47983;BME280;33751;50.816;-1.214;2022-11-02T11:53:27;101493.49;;;13.78;100.00
47983;BME280;33751;50.816;-1.214;2022-11-02T11:55:55;101487.72;;;13.60;100.00
47983;BME280;33751;50.816;-1.214;2022-11-02T11:58:24;101481.68;;;13.61;100.00
47983;BME280;33751;50.816;-1.214;2022-11-02T12:01:04;101476.27;;;13.56;100.00
47983;BME280;33751;50.816;-1.214;2022-11-02T12:03:31;101483.39;;;13.63;100.00
47983;BME280;33751;50.816;-1.214;2022-11-02T12:06:05;101469.13;;;13.70;100.00
47983;BME280;33751;50.816;-1.214;2022-11-02T12:08:46;101477.45;;;13.63;100.00
47983;BME280;33751;50.816;-1.214;2022-11-02T12:11:26;101469.29;;;13.72;100.00
47983;BME280;33751;50.816;-1.214;2022-11-02T12:14:07;101463.09;;;13.45;100.00
47983;BME280;33751;50.816;-1.214;2022-11-02T12:16:51;101460.41;;;13.92;100.00
47983;BME280;33751;50.816;-1.214;2022-11-02T12:19:31;101459.98;;;13.79;100.00
47983;BME280;33751;50.816;-1.214;2022-11-02T12:22:08;101456.54;;;13.64;100.00
47983;BME280;33751;50.816;-1.214;2022-11-02T12:25:00;101455.04;;;13.68;100.00
47983;BME280;33751;50.816;-1.214;2022-11-02T12:27:38;101452.68;;;13.73;100.00
47983;BME280;33751;50.816;-1.214;2022-11-02T12:30:16;101458.53;;;13.90;100.00
47983;BME280;33751;50.816;-1.214;2022-11-02T12:32:59;101456.93;;;13.65;100.00
47983;BME280;33751;50.816;-1.214;2022-11-02T12:35:41;101446.79;;;13.58;100.00
47983;BME280;33751;50.816;-1.214;2022-11-02T12:38:29;101446.66;;;13.56;100.00
47983;BME280;33751;50.816;-1.214;2022-11-02T12:41:03;101439.32;;;13.59;100.00
47983;BME280;33751;50.816;-1.214;2022-11-02T12:43:37;101431.76;;;13.76;100.00
47983;BME280;33751;50.816;-1.214;2022-11-02T12:46:14;101427.98;;;13.93;100.00